Terminal Aerodrome Forecast
Issued by NWS

Home | Current Version | Previous Version | Text Only | Print | Product List | Glossary On
Versions: 1 2 3 4 5 6 7 8 9 10 11 12 13 14 15
000
FTUS45 KABQ 152300
TAFTCC
TAF
KTCC 152325Z 1600/1624 21022G32KT P6SM SCT250
     FM160200 21015KT P6SM BKN250
     FM161200 24015KT P6SM BKN250
     FM161800 28015KT P6SM BKN150 BKN250
     FM162200 04015G22KT P6SM VCSH BKN070 BKN120=

USA.gov is the U.S. government's official web portal to all federal, state and local government web resources and services.